createdAt,value
2022-11-21T00:01:28.187Z,60.68
2022-11-21T00:03:58.360Z,61.47
2022-11-21T00:06:28.522Z,61.36
2022-11-21T00:08:58.654Z,61.81
2022-11-21T00:11:28.577Z,61.17
2022-11-21T00:13:58.487Z,61.22
2022-11-21T00:16:28.438Z,61.74
2022-11-21T00:19:00.339Z,60.83
2022-11-21T00:21:30.843Z,60.74
2022-11-21T00:24:00.735Z,61.19
2022-11-21T00:26:30.657Z,60.88
2022-11-21T00:29:00.607Z,60.36
2022-11-21T00:31:30.529Z,61.27
2022-11-21T00:34:00.560Z,60.55
2022-11-21T00:36:30.456Z,61.25
2022-11-21T00:39:01.388Z,64.19
2022-11-21T00:41:31.342Z,63.20
2022-11-21T00:44:01.492Z,61.89
2022-11-21T00:46:31.427Z,61.01
2022-11-21T00:49:01.401Z,61.95
2022-11-21T00:51:33.878Z,61.23
2022-11-21T00:54:03.940Z,61.35
2022-11-21T00:56:33.889Z,61.90
2022-11-21T00:59:03.940Z,62.31
2022-11-21T01:01:33.900Z,61.78
2022-11-21T01:04:03.816Z,60.63
2022-11-21T01:06:34.829Z,61.02
2022-11-21T01:09:05.808Z,60.79
2022-11-21T01:11:36.108Z,60.60
2022-11-21T01:14:06.297Z,60.55
2022-11-21T01:16:37.607Z,61.34
2022-11-21T01:19:07.572Z,60.30
2022-11-21T01:21:37.489Z,61.84
2022-11-21T01:24:07.718Z,62.35
2022-11-21T01:26:40.364Z,60.09
2022-11-21T01:29:10.462Z,60.21
2022-11-21T01:31:39.873Z,60.47
2022-11-21T01:34:09.771Z,59.79
2022-11-21T01:36:39.677Z,59.32
2022-11-21T01:39:10.927Z,60.50
2022-11-21T01:41:44.219Z,59.45
2022-11-21T01:45:07.495Z,59.21
2022-11-21T01:47:37.774Z,59.58
2022-11-21T01:50:12.800Z,59.22
2022-11-21T01:52:43.039Z,59.08
2022-11-21T01:55:14.798Z,59.17
2022-11-21T01:57:49.396Z,58.83
2022-11-21T02:00:26.635Z,58.67
2022-11-21T02:03:02.025Z,58.67
2022-11-21T02:05:35.554Z,58.41
2022-11-21T02:08:11.620Z,58.00
2022-11-21T02:10:49.638Z,58.38
2022-11-21T02:13:19.619Z,58.16
2022-11-21T02:15:49.843Z,57.83
2022-11-21T02:18:20.807Z,57.47
2022-11-21T02:20:59.845Z,57.55
2022-11-21T02:23:47.559Z,57.45
2022-11-21T02:26:17.575Z,57.04
2022-11-21T02:28:47.743Z,56.99
2022-11-21T02:31:17.636Z,55.37
2022-11-21T02:33:47.270Z,57.22
2022-11-21T02:36:35.234Z,56.93
2022-11-21T02:39:07.190Z,56.84
2022-11-21T02:41:39.918Z,56.55
2022-11-21T02:44:35.761Z,56.58
2022-11-21T02:47:05.850Z,54.63
2022-11-21T02:50:09.312Z,54.70
2022-11-21T02:52:40.176Z,56.08
2022-11-21T02:55:12.823Z,52.92
2022-11-21T02:57:43.131Z,55.55
2022-11-21T03:00:15.324Z,54.06
2022-11-21T03:02:45.677Z,55.68
2022-11-21T03:05:20.360Z,55.11
2022-11-21T03:07:50.965Z,55.50
2022-11-21T03:10:22.111Z,55.11
2022-11-21T03:12:52.468Z,54.22
2022-11-21T03:15:22.351Z,53.47
2022-11-21T03:17:52.274Z,53.43
2022-11-21T03:20:22.724Z,53.82
2022-11-21T03:22:55.611Z,53.47
2022-11-21T03:25:26.862Z,53.14
2022-11-21T03:27:58.418Z,54.05
2022-11-21T03:30:29.211Z,54.50
2022-11-21T03:32:59.758Z,54.28
2022-11-21T03:38:31.497Z,54.19
2022-11-21T03:41:07.038Z,54.45
2022-11-21T03:43:38.036Z,51.90
2022-11-21T03:46:08.079Z,52.83
2022-11-21T03:48:37.993Z,52.99
2022-11-21T03:51:08.779Z,53.22
2022-11-21T03:53:39.895Z,53.35
2022-11-21T03:56:10.021Z,51.02
2022-11-21T03:58:41.604Z,52.89
2022-11-21T04:01:12.979Z,51.43
2022-11-21T04:03:45.610Z,52.19
2022-11-21T04:06:19.488Z,53.02
2022-11-21T04:08:52.323Z,52.87
2022-11-21T04:11:25.740Z,51.23
2022-11-21T04:13:57.116Z,48.58
2022-11-21T04:16:27.256Z,49.01
2022-11-21T04:18:58.673Z,51.72
2022-11-21T04:21:30.389Z,49.90
2022-11-21T04:24:01.804Z,48.46
2022-11-21T04:26:31.935Z,48.45
2022-11-21T04:29:02.902Z,49.01
2022-11-21T04:31:33.386Z,50.18
2022-11-21T04:34:04.818Z,50.75
2022-11-21T04:36:35.819Z,51.08
2022-11-21T04:39:09.526Z,46.91
2022-11-21T04:41:39.730Z,49.40
2022-11-21T04:44:10.775Z,49.93
2022-11-21T04:46:41.328Z,45.96
2022-11-21T04:49:12.759Z,50.18
2022-11-21T04:51:43.617Z,50.03
2022-11-21T04:54:15.127Z,44.51
2022-11-21T04:56:46.481Z,50.80
2022-11-21T04:59:17.092Z,49.54
2022-11-21T05:01:47.497Z,50.71
2022-11-21T05:04:18.568Z,50.36
2022-11-21T05:06:49.430Z,50.04
2022-11-21T05:09:20.367Z,43.99
2022-11-21T05:12:08.571Z,46.72
2022-11-21T05:14:39.738Z,47.05
2022-11-21T05:17:11.215Z,48.98
2022-11-21T05:19:43.073Z,49.08
2022-11-21T05:22:14.681Z,49.58
2022-11-21T05:24:47.273Z,49.15
2022-11-21T05:27:20.165Z,49.41
2022-11-21T05:29:52.971Z,47.05
2022-11-21T05:32:24.498Z,47.30
2022-11-21T05:34:57.689Z,46.61
2022-11-21T05:37:30.060Z,47.00
2022-11-21T05:40:02.313Z,48.54
2022-11-21T05:42:51.305Z,48.48
2022-11-21T05:45:21.766Z,44.48
2022-11-21T05:47:53.957Z,47.13
2022-11-21T05:50:24.348Z,45.51
2022-11-21T05:52:55.918Z,48.40
2022-11-21T05:55:27.368Z,48.55
2022-11-21T05:58:00.068Z,48.51
2022-11-21T06:00:33.603Z,48.80
2022-11-21T06:03:23.358Z,48.29
2022-11-21T06:05:55.755Z,47.74
2022-11-21T06:08:26.570Z,47.80
2022-11-21T06:10:57.620Z,47.79
2022-11-21T06:13:30.723Z,48.29
2022-11-21T06:16:05.568Z,48.78
2022-11-21T06:18:42.474Z,41.53
2022-11-21T06:21:19.508Z,46.54
2022-11-21T06:23:55.172Z,41.40
2022-11-21T06:26:33.709Z,45.18
2022-11-21T06:29:13.064Z,48.32
2022-11-21T06:31:52.384Z,47.69
2022-11-21T06:34:23.926Z,43.91
2022-11-21T06:36:55.907Z,44.34
2022-11-21T06:39:36.608Z,44.26
2022-11-21T06:42:14.989Z,45.11
2022-11-21T06:44:46.473Z,46.82
2022-11-21T06:47:30.721Z,46.83
2022-11-21T06:50:15.858Z,47.18
2022-11-21T06:52:46.928Z,45.94
2022-11-21T06:55:18.848Z,46.58
2022-11-21T06:57:49.266Z,46.69
2022-11-21T07:00:21.140Z,47.10
2022-11-21T07:02:51.700Z,46.98
2022-11-21T07:05:21.861Z,45.81
2022-11-21T07:07:53.549Z,42.47
2022-11-21T07:10:23.987Z,45.49
2022-11-21T07:13:12.911Z,44.56
2022-11-21T07:15:43.460Z,46.38
2022-11-21T07:18:14.656Z,46.77
2022-11-21T07:20:45.793Z,44.17
2022-11-21T07:23:17.486Z,45.98
2022-11-21T07:25:48.145Z,46.77
2022-11-21T07:28:18.681Z,43.83
2022-11-21T07:30:49.391Z,45.49
2022-11-21T07:33:19.184Z,45.20
2022-11-21T07:35:49.150Z,46.61
2022-11-21T07:38:19.433Z,46.38
2022-11-21T07:40:49.595Z,46.62
2022-11-21T07:43:20.345Z,45.83
2022-11-21T07:45:52.408Z,45.92
2022-11-21T07:48:22.723Z,45.97
2022-11-21T07:50:53.761Z,46.06
2022-11-21T07:53:23.914Z,46.26
2022-11-21T07:55:54.770Z,46.58
2022-11-21T07:58:24.825Z,46.73
2022-11-21T08:00:55.120Z,46.40
2022-11-21T08:03:26.612Z,46.57
2022-11-21T08:05:57.274Z,46.79
2022-11-21T08:08:29.119Z,46.76
2022-11-21T08:11:00.407Z,46.62
2022-11-21T08:13:31.971Z,46.20
2022-11-21T08:16:06.368Z,47.03
2022-11-21T08:18:36.959Z,46.73
2022-11-21T08:21:07.993Z,47.32
2022-11-21T08:23:38.574Z,46.70
2022-11-21T08:26:13.221Z,46.90
2022-11-21T08:28:44.337Z,46.89
2022-11-21T08:31:15.411Z,47.00
2022-11-21T08:33:45.456Z,46.97
2022-11-21T08:36:15.461Z,46.74
2022-11-21T08:38:45.396Z,47.17
2022-11-21T08:41:33.462Z,47.41
2022-11-21T08:44:03.656Z,47.23
2022-11-21T08:46:35.034Z,46.91
2022-11-21T08:49:08.338Z,47.42
2022-11-21T08:51:38.688Z,47.46
2022-11-21T08:54:12.136Z,47.34
2022-11-21T08:56:42.146Z,47.27
2022-11-21T08:59:12.249Z,47.51
2022-11-21T09:01:42.317Z,47.41
2022-11-21T09:04:12.934Z,47.04
2022-11-21T09:06:42.989Z,47.15
2022-11-21T09:09:13.033Z,47.12
2022-11-21T09:11:42.973Z,46.69
2022-11-21T09:14:31.118Z,47.27
2022-11-21T09:17:20.096Z,47.48
2022-11-21T09:19:50.351Z,47.37
2022-11-21T09:22:20.452Z,47.17
2022-11-21T09:24:50.444Z,47.50
2022-11-21T09:27:20.386Z,47.49
2022-11-21T09:29:54.251Z,47.49
2022-11-21T09:32:25.295Z,47.43
2022-11-21T09:34:56.749Z,47.32
2022-11-21T09:37:27.070Z,47.44
2022-11-21T09:39:57.702Z,47.85
2022-11-21T09:42:54.623Z,48.01
2022-11-21T09:45:24.725Z,47.80
2022-11-21T09:47:56.559Z,47.84
2022-11-21T09:50:45.393Z,47.63
2022-11-21T09:53:38.660Z,47.56
2022-11-21T09:56:21.293Z,46.97
2022-11-21T09:59:26.824Z,47.36
2022-11-21T10:01:57.758Z,46.54
2022-11-21T10:04:29.566Z,46.42
2022-11-21T10:07:33.938Z,47.17
2022-11-21T10:10:39.525Z,47.10
2022-11-21T10:13:29.187Z,47.11
2022-11-21T10:16:43.021Z,45.90
2022-11-21T10:19:22.021Z,45.26
2022-11-21T10:22:17.521Z,45.33
2022-11-21T10:25:28.813Z,45.09
2022-11-21T10:28:18.911Z,47.18
2022-11-21T10:30:53.599Z,46.42
2022-11-21T10:33:34.280Z,46.70
2022-11-21T10:36:15.603Z,46.66
2022-11-21T10:38:47.206Z,47.00
2022-11-21T10:41:22.893Z,47.17
2022-11-21T10:44:33.084Z,47.01
2022-11-21T10:47:04.841Z,46.96
2022-11-21T10:49:37.304Z,47.58
2022-11-21T10:52:12.890Z,47.79
2022-11-21T10:55:15.882Z,47.79
2022-11-21T10:57:50.165Z,47.81
2022-11-21T11:00:30.750Z,47.48
2022-11-21T11:03:18.496Z,47.59
2022-11-21T11:06:02.144Z,46.69
2022-11-21T11:08:54.818Z,47.27
2022-11-21T11:11:28.654Z,46.81
2022-11-21T11:14:01.212Z,47.20
2022-11-21T11:16:38.566Z,44.97
2022-11-21T11:19:17.760Z,46.15
2022-11-21T11:21:49.591Z,46.26
2022-11-21T11:24:21.512Z,44.10
2022-11-21T11:26:57.877Z,44.30
2022-11-21T11:29:38.046Z,45.76
2022-11-21T11:32:20.875Z,45.79
2022-11-21T11:35:02.271Z,44.70
2022-11-21T11:37:44.422Z,44.62
2022-11-21T11:40:29.161Z,45.68
2022-11-21T11:43:58.102Z,45.94
2022-11-21T11:46:57.234Z,46.68
2022-11-21T11:50:00.864Z,47.01
2022-11-21T11:52:56.763Z,47.54
2022-11-21T11:55:35.426Z,47.41
2022-11-21T11:58:16.440Z,47.85
2022-11-21T12:01:17.058Z,47.36
2022-11-21T12:04:00.871Z,46.43
2022-11-21T12:07:41.243Z,47.51
2022-11-21T12:09:39.403Z,47.50
2022-11-21T12:12:28.279Z,47.57
2022-11-21T12:15:38.468Z,48.32
2022-11-21T12:18:23.615Z,48.63
2022-11-21T12:20:59.067Z,48.21
2022-11-21T12:23:53.867Z,48.19
2022-11-21T12:26:37.476Z,48.49
2022-11-21T12:29:27.416Z,48.79
2022-11-21T12:32:11.442Z,49.20
2022-11-21T12:35:06.526Z,49.28
2022-11-21T12:37:56.255Z,49.16
2022-11-21T12:41:32.657Z,49.35
2022-11-21T12:44:24.197Z,49.48
2022-11-21T12:46:57.272Z,49.45
2022-11-21T12:50:22.544Z,49.60
2022-11-21T12:53:14.661Z,49.28
2022-11-21T12:55:44.483Z,49.36
2022-11-21T12:58:34.018Z,49.43
2022-11-21T13:01:32.733Z,49.23
2022-11-21T13:04:08.266Z,49.23
2022-11-21T13:06:50.338Z,48.93
2022-11-21T13:09:24.163Z,49.19
2022-11-21T13:12:19.985Z,49.11
2022-11-21T13:15:10.776Z,49.06
2022-11-21T13:17:58.908Z,48.93
2022-11-21T13:20:42.550Z,49.34
2022-11-21T13:23:47.160Z,49.09
2022-11-21T13:26:31.417Z,49.73
2022-11-21T13:29:12.374Z,49.23
2022-11-21T13:31:43.871Z,49.29
2022-11-21T13:34:49.573Z,49.33
2022-11-21T13:37:51.450Z,49.30
2022-11-21T13:40:33.280Z,49.24
2022-11-21T13:43:33.189Z,49.59
2022-11-21T13:46:04.453Z,49.63
2022-11-21T13:48:47.149Z,49.56
2022-11-21T13:51:36.751Z,49.65
2022-11-21T13:54:29.297Z,49.31
2022-11-21T13:57:23.510Z,49.70
2022-11-21T14:00:20.209Z,49.75
2022-11-21T14:03:32.696Z,49.41
2022-11-21T14:06:16.376Z,49.22
2022-11-21T14:09:10.039Z,49.74
2022-11-21T14:11:56.137Z,49.62
2022-11-21T14:14:41.708Z,49.14
2022-11-21T14:17:34.259Z,49.42
2022-11-21T14:20:27.656Z,49.01
2022-11-21T14:23:05.287Z,49.38
2022-11-21T14:25:43.281Z,49.24
2022-11-21T14:28:41.549Z,49.28
2022-11-21T14:31:16.116Z,48.99
2022-11-21T14:33:50.649Z,49.31
2022-11-21T14:36:33.204Z,49.71
2022-11-21T14:42:12.602Z,49.32
2022-11-21T14:44:44.208Z,49.79
2022-11-21T14:47:25.925Z,49.73
2022-11-21T14:50:07.088Z,49.58
2022-11-21T14:52:45.241Z,49.67
2022-11-21T14:55:32.370Z,49.75
2022-11-21T14:58:06.153Z,49.61
2022-11-21T15:00:58.492Z,50.11
2022-11-21T15:03:27.428Z,49.78
2022-11-21T15:06:12.620Z,49.56
2022-11-21T15:11:47.202Z,49.47
2022-11-21T15:14:27.645Z,49.46
2022-11-21T15:17:00.612Z,49.34
2022-11-21T15:19:33.748Z,49.25
2022-11-21T15:22:06.074Z,49.44
2022-11-21T15:24:41.323Z,49.57
2022-11-21T15:27:30.829Z,49.69
2022-11-21T15:30:16.253Z,49.57
2022-11-21T15:33:10.016Z,49.37
2022-11-21T15:35:50.238Z,49.38
2022-11-21T15:38:45.204Z,49.84
2022-11-21T15:41:15.835Z,49.97
2022-11-21T15:43:48.332Z,49.47
2022-11-21T15:46:24.613Z,49.83
2022-11-21T15:48:57.138Z,49.75
2022-11-21T15:51:59.742Z,50.25
2022-11-21T15:54:25.686Z,50.07
2022-11-21T15:56:56.127Z,49.89
2022-11-21T15:59:26.792Z,49.76
2022-11-21T16:01:59.559Z,49.96
2022-11-21T16:04:30.027Z,50.29
2022-11-21T16:07:00.507Z,50.27
2022-11-21T16:09:31.185Z,49.81
2022-11-21T16:12:01.796Z,49.95
2022-11-21T16:14:32.428Z,50.05
2022-11-21T16:17:02.706Z,49.80
2022-11-21T16:19:33.297Z,49.58
2022-11-21T16:22:05.162Z,49.67
2022-11-21T16:24:36.413Z,49.46
2022-11-21T16:27:06.858Z,49.62
2022-11-21T16:29:37.674Z,49.68
2022-11-21T16:32:08.184Z,49.84
2022-11-21T16:34:38.578Z,49.63
2022-11-21T16:37:09.431Z,49.62
2022-11-21T16:39:39.728Z,50.22
2022-11-21T16:42:13.095Z,49.94
2022-11-21T16:44:44.453Z,50.33
2022-11-21T16:47:16.440Z,50.07
2022-11-21T16:49:51.547Z,50.41
2022-11-21T16:52:21.842Z,50.25
2022-11-21T16:54:52.288Z,50.60
2022-11-21T16:57:22.579Z,50.42
2022-11-21T16:59:52.841Z,50.00
2022-11-21T17:02:23.063Z,50.23
2022-11-21T17:04:53.592Z,50.35
2022-11-21T17:07:23.624Z,50.37
2022-11-21T17:09:54.063Z,50.61
2022-11-21T17:12:24.640Z,50.25
2022-11-21T17:14:54.919Z,49.82
2022-11-21T17:17:25.534Z,50.41
2022-11-21T17:19:55.921Z,50.60
2022-11-21T17:22:27.184Z,50.23
2022-11-21T17:24:57.820Z,50.12
2022-11-21T17:27:28.023Z,50.24
2022-11-21T17:29:58.642Z,50.31
2022-11-21T17:32:29.507Z,50.52
2022-11-21T17:35:00.690Z,50.68
2022-11-21T17:37:30.834Z,50.30
2022-11-21T17:40:00.867Z,50.77
2022-11-21T17:42:30.879Z,50.25
2022-11-21T17:45:01.881Z,50.45
2022-11-21T17:47:36.332Z,50.95
2022-11-21T17:50:08.154Z,50.62
2022-11-21T17:52:37.803Z,50.68
2022-11-21T17:55:08.271Z,50.58
2022-11-21T17:57:38.443Z,50.79
2022-11-21T18:00:09.280Z,50.99
2022-11-21T18:02:40.543Z,51.33
2022-11-21T18:05:11.134Z,50.64
2022-11-21T18:07:41.360Z,51.20
2022-11-21T18:10:40.679Z,50.83
2022-11-21T18:13:01.771Z,50.74
2022-11-21T18:15:31.782Z,50.60
2022-11-21T18:18:02.221Z,50.93
2022-11-21T18:20:32.832Z,50.90
2022-11-21T18:23:02.738Z,51.46
2022-11-21T18:25:32.642Z,51.34
2022-11-21T18:28:02.614Z,51.51
2022-11-21T18:30:33.411Z,51.44
2022-11-21T18:33:05.560Z,51.64
2022-11-21T18:35:35.065Z,51.80
2022-11-21T18:38:05.116Z,52.14
2022-11-21T18:40:35.042Z,52.01
2022-11-21T18:43:05.185Z,52.31
2022-11-21T18:45:35.126Z,52.21
2022-11-21T18:48:04.409Z,51.75
2022-11-21T18:50:35.703Z,52.15
2022-11-21T18:53:05.961Z,52.36
2022-11-21T18:55:39.612Z,52.38
2022-11-21T18:58:09.675Z,52.47
2022-11-21T19:00:39.576Z,52.35
2022-11-21T19:03:09.471Z,52.11
2022-11-21T19:05:43.701Z,52.16
2022-11-21T19:08:14.302Z,52.57
2022-11-21T19:10:44.557Z,52.63
2022-11-21T19:13:14.577Z,52.62
2022-11-21T19:15:45.654Z,53.76
2022-11-21T19:18:15.980Z,52.81
2022-11-21T19:20:46.670Z,52.95
2022-11-21T19:23:16.683Z,52.88
2022-11-21T19:25:46.625Z,52.86
2022-11-21T19:28:16.511Z,53.14
2022-11-21T19:30:46.425Z,52.68
2022-11-21T19:33:16.321Z,52.47
2022-11-21T19:35:46.658Z,52.98
2022-11-21T19:38:16.643Z,52.94
2022-11-21T19:41:06.812Z,52.93
2022-11-21T19:43:37.452Z,52.99
2022-11-21T19:46:08.679Z,52.47
2022-11-21T19:48:39.656Z,53.08
2022-11-21T19:51:10.458Z,53.39
2022-11-21T19:53:40.688Z,53.03
2022-11-21T19:56:19.521Z,54.47
2022-11-21T19:58:51.471Z,53.78
2022-11-21T20:01:24.288Z,53.10
2022-11-21T20:04:01.667Z,53.09
2022-11-21T20:06:35.516Z,54.32
2022-11-21T20:09:13.925Z,53.45
2022-11-21T20:11:46.643Z,53.15
2022-11-21T20:14:21.906Z,53.47
2022-11-21T20:16:54.334Z,53.76
2022-11-21T20:19:26.397Z,53.22
2022-11-21T20:21:56.759Z,53.42
2022-11-21T20:24:26.887Z,53.81
2022-11-21T20:26:57.327Z,53.36
2022-11-21T20:29:27.484Z,53.74
2022-11-21T20:32:00.320Z,53.48
2022-11-21T20:34:30.894Z,53.53
2022-11-21T20:37:02.078Z,53.12
2022-11-21T20:39:32.838Z,54.00
2022-11-21T20:42:03.120Z,53.78
2022-11-21T20:47:23.989Z,53.45
2022-11-21T20:49:54.420Z,53.71
2022-11-21T20:55:14.667Z,53.49
2022-11-21T20:57:44.803Z,53.71
2022-11-21T21:00:15.278Z,53.81
2022-11-21T21:02:45.291Z,53.50
2022-11-21T21:05:15.406Z,54.10
2022-11-21T21:07:45.499Z,55.02
2022-11-21T21:10:15.541Z,54.13
2022-11-21T21:12:48.591Z,54.00
2022-11-21T21:15:18.958Z,53.30
2022-11-21T21:17:49.075Z,54.25
2022-11-21T21:20:19.153Z,53.84
2022-11-21T21:22:49.229Z,53.66
2022-11-21T21:25:19.210Z,53.58
2022-11-21T21:27:53.220Z,53.65
2022-11-21T21:30:24.557Z,53.14
2022-11-21T21:32:54.636Z,53.58
2022-11-21T21:35:25.789Z,53.45
2022-11-21T21:37:55.810Z,53.54
2022-11-21T21:40:25.722Z,53.45
2022-11-21T21:42:55.664Z,53.21
2022-11-21T21:45:25.574Z,53.45
2022-11-21T21:47:56.428Z,54.09
2022-11-21T21:50:26.392Z,53.78
2022-11-21T21:52:56.306Z,53.52
2022-11-21T21:55:26.441Z,53.50
2022-11-21T21:57:57.926Z,53.56
2022-11-21T22:00:27.891Z,53.50
2022-11-21T22:02:57.798Z,54.61
2022-11-21T22:05:27.058Z,53.69
2022-11-21T22:07:56.934Z,54.11
2022-11-21T22:10:26.993Z,53.49
2022-11-21T22:12:56.883Z,53.80
2022-11-21T22:15:26.808Z,53.72
2022-11-21T22:17:58.925Z,53.56
2022-11-21T22:20:30.070Z,53.76
2022-11-21T22:23:01.497Z,53.72
2022-11-21T22:25:32.773Z,53.97
2022-11-21T22:28:03.278Z,53.77
2022-11-21T22:30:33.595Z,53.80
2022-11-21T22:33:04.391Z,53.56
2022-11-21T22:35:36.588Z,53.63
2022-11-21T22:38:07.091Z,53.80
2022-11-21T22:40:37.196Z,53.67
2022-11-21T22:43:08.196Z,54.14
2022-11-21T22:45:40.655Z,53.67
2022-11-21T22:48:11.043Z,53.62
2022-11-21T22:50:46.776Z,53.80
2022-11-21T22:53:18.068Z,53.41
2022-11-21T22:55:57.738Z,53.30
2022-11-21T22:58:31.631Z,53.80
2022-11-21T23:01:07.091Z,53.89
2022-11-21T23:03:38.417Z,53.81
2022-11-21T23:06:11.436Z,53.82
2022-11-21T23:08:42.809Z,53.76
2022-11-21T23:11:14.853Z,53.95
2022-11-21T23:13:47.587Z,53.39
2022-11-21T23:16:20.071Z,53.88
2022-11-21T23:18:53.619Z,53.54
2022-11-21T23:21:24.351Z,53.56
2022-11-21T23:23:55.041Z,53.53
2022-11-21T23:26:25.625Z,53.86
2022-11-21T23:28:56.387Z,53.47
2022-11-21T23:31:27.048Z,53.43
2022-11-21T23:33:57.385Z,53.56
2022-11-21T23:36:27.474Z,53.81
2022-11-21T23:38:58.443Z,53.51
2022-11-21T23:41:29.003Z,53.98
2022-11-21T23:43:58.482Z,53.71
2022-11-21T23:46:29.974Z,53.62
2022-11-21T23:49:00.031Z,53.17
2022-11-21T23:51:30.990Z,54.01
2022-11-21T23:54:01.030Z,53.65
2022-11-21T23:56:31.130Z,53.52
2022-11-21T23:59:01.149Z,53.93
